sensor_id;sensor_type;location;lat;lon;timestamp;P1;durP1;ratioP1;P2;durP2;ratioP2
2624;SDS011;1322;53.256;10.386;2023-09-07T00:01:08;7.03;;;6.40;;
2624;SDS011;1322;53.256;10.386;2023-09-07T00:03:33;6.27;;;5.60;;
2624;SDS011;1322;53.256;10.386;2023-09-07T00:05:59;5.80;;;5.20;;
2624;SDS011;1322;53.256;10.386;2023-09-07T00:08:25;6.63;;;5.93;;
2624;SDS011;1322;53.256;10.386;2023-09-07T00:10:51;6.43;;;5.70;;
2624;SDS011;1322;53.256;10.386;2023-09-07T00:13:16;6.33;;;5.50;;
2624;SDS011;1322;53.256;10.386;2023-09-07T00:15:42;5.40;;;4.90;;
2624;SDS011;1322;53.256;10.386;2023-09-07T00:18:08;6.53;;;5.50;;
2624;SDS011;1322;53.256;10.386;2023-09-07T00:20:34;7.50;;;4.97;;
2624;SDS011;1322;53.256;10.386;2023-09-07T00:23:00;5.13;;;4.63;;
2624;SDS011;1322;53.256;10.386;2023-09-07T00:25:26;6.30;;;5.70;;
2624;SDS011;1322;53.256;10.386;2023-09-07T00:27:52;6.03;;;5.50;;
2624;SDS011;1322;53.256;10.386;2023-09-07T00:30:18;6.20;;;5.47;;
2624;SDS011;1322;53.256;10.386;2023-09-07T00:32:44;6.03;;;5.43;;
2624;SDS011;1322;53.256;10.386;2023-09-07T00:35:10;10.13;;;5.77;;
2624;SDS011;1322;53.256;10.386;2023-09-07T00:37:36;6.43;;;5.67;;
2624;SDS011;1322;53.256;10.386;2023-09-07T00:40:02;6.30;;;5.70;;
2624;SDS011;1322;53.256;10.386;2023-09-07T00:42:28;6.90;;;6.20;;
2624;SDS011;1322;53.256;10.386;2023-09-07T00:44:54;6.67;;;5.77;;
2624;SDS011;1322;53.256;10.386;2023-09-07T00:47:20;5.50;;;5.00;;
2624;SDS011;1322;53.256;10.386;2023-09-07T00:49:47;5.50;;;5.00;;
2624;SDS011;1322;53.256;10.386;2023-09-07T00:52:13;5.97;;;5.37;;
2624;SDS011;1322;53.256;10.386;2023-09-07T00:54:39;5.13;;;4.63;;
2624;SDS011;1322;53.256;10.386;2023-09-07T00:57:05;7.10;;;6.40;;
2624;SDS011;1322;53.256;10.386;2023-09-07T00:59:32;5.40;;;4.90;;
2624;SDS011;1322;53.256;10.386;2023-09-07T01:01:58;8.30;;;5.23;;
2624;SDS011;1322;53.256;10.386;2023-09-07T01:04:24;6.50;;;5.90;;
2624;SDS011;1322;53.256;10.386;2023-09-07T01:06:56;5.93;;;5.27;;
2624;SDS011;1322;53.256;10.386;2023-09-07T01:09:28;7.53;;;6.03;;
2624;SDS011;1322;53.256;10.386;2023-09-07T01:11:57;9.17;;;6.40;;
2624;SDS011;1322;53.256;10.386;2023-09-07T01:14:22;6.90;;;6.10;;
2624;SDS011;1322;53.256;10.386;2023-09-07T01:16:48;7.47;;;5.70;;
2624;SDS011;1322;53.256;10.386;2023-09-07T01:19:15;7.43;;;6.67;;
2624;SDS011;1322;53.256;10.386;2023-09-07T01:21:41;8.50;;;5.90;;
2624;SDS011;1322;53.256;10.386;2023-09-07T01:24:08;6.47;;;5.80;;
2624;SDS011;1322;53.256;10.386;2023-09-07T01:26:35;8.30;;;7.50;;
2624;SDS011;1322;53.256;10.386;2023-09-07T01:29:04;7.33;;;6.50;;
2624;SDS011;1322;53.256;10.386;2023-09-07T01:31:34;7.50;;;6.07;;
2624;SDS011;1322;53.256;10.386;2023-09-07T01:34:00;7.17;;;6.47;;
2624;SDS011;1322;53.256;10.386;2023-09-07T01:36:26;6.70;;;6.07;;
2624;SDS011;1322;53.256;10.386;2023-09-07T01:38:52;7.33;;;6.63;;
2624;SDS011;1322;53.256;10.386;2023-09-07T01:41:17;7.07;;;6.00;;
2624;SDS011;1322;53.256;10.386;2023-09-07T01:43:43;13.50;;;6.87;;
2624;SDS011;1322;53.256;10.386;2023-09-07T01:46:08;8.33;;;6.30;;
2624;SDS011;1322;53.256;10.386;2023-09-07T01:48:34;6.17;;;5.23;;
2624;SDS011;1322;53.256;10.386;2023-09-07T01:51:01;6.93;;;6.30;;
2624;SDS011;1322;53.256;10.386;2023-09-07T01:53:26;8.60;;;6.57;;
2624;SDS011;1322;53.256;10.386;2023-09-07T01:55:55;6.37;;;5.67;;
2624;SDS011;1322;53.256;10.386;2023-09-07T01:58:21;9.27;;;6.67;;
2624;SDS011;1322;53.256;10.386;2023-09-07T02:00:49;10.60;;;6.30;;
2624;SDS011;1322;53.256;10.386;2023-09-07T02:03:14;9.23;;;6.93;;
2624;SDS011;1322;53.256;10.386;2023-09-07T02:05:40;6.20;;;5.60;;
2624;SDS011;1322;53.256;10.386;2023-09-07T02:08:06;7.07;;;6.37;;
2624;SDS011;1322;53.256;10.386;2023-09-07T02:10:32;7.00;;;5.80;;
2624;SDS011;1322;53.256;10.386;2023-09-07T02:12:58;6.50;;;5.90;;
2624;SDS011;1322;53.256;10.386;2023-09-07T02:15:24;7.80;;;6.60;;
2624;SDS011;1322;53.256;10.386;2023-09-07T02:17:50;7.47;;;6.33;;
2624;SDS011;1322;53.256;10.386;2023-09-07T02:20:15;7.30;;;6.37;;
2624;SDS011;1322;53.256;10.386;2023-09-07T02:22:41;6.27;;;5.67;;
2624;SDS011;1322;53.256;10.386;2023-09-07T02:25:07;14.73;;;5.93;;
2624;SDS011;1322;53.256;10.386;2023-09-07T02:27:33;7.27;;;6.07;;
2624;SDS011;1322;53.256;10.386;2023-09-07T02:30:01;12.00;;;6.50;;
2624;SDS011;1322;53.256;10.386;2023-09-07T02:32:30;7.63;;;6.77;;
2624;SDS011;1322;53.256;10.386;2023-09-07T02:34:56;7.20;;;6.50;;
2624;SDS011;1322;53.256;10.386;2023-09-07T02:37:22;7.63;;;6.17;;
2624;SDS011;1322;53.256;10.386;2023-09-07T02:39:48;8.70;;;5.57;;
2624;SDS011;1322;53.256;10.386;2023-09-07T02:42:14;6.97;;;6.23;;
2624;SDS011;1322;53.256;10.386;2023-09-07T02:44:40;6.50;;;5.80;;
2624;SDS011;1322;53.256;10.386;2023-09-07T02:47:05;6.37;;;5.57;;
2624;SDS011;1322;53.256;10.386;2023-09-07T02:49:31;6.97;;;6.30;;
2624;SDS011;1322;53.256;10.386;2023-09-07T02:51:56;7.50;;;6.80;;
2624;SDS011;1322;53.256;10.386;2023-09-07T02:54:22;7.47;;;6.07;;
2624;SDS011;1322;53.256;10.386;2023-09-07T02:56:48;7.33;;;6.60;;
2624;SDS011;1322;53.256;10.386;2023-09-07T02:59:14;8.70;;;7.40;;
2624;SDS011;1322;53.256;10.386;2023-09-07T03:01:40;6.70;;;6.00;;
2624;SDS011;1322;53.256;10.386;2023-09-07T03:04:05;7.80;;;6.53;;
2624;SDS011;1322;53.256;10.386;2023-09-07T03:06:32;6.90;;;6.20;;
2624;SDS011;1322;53.256;10.386;2023-09-07T03:08:58;6.43;;;5.80;;
2624;SDS011;1322;53.256;10.386;2023-09-07T03:11:23;6.60;;;6.00;;
2624;SDS011;1322;53.256;10.386;2023-09-07T03:13:49;7.90;;;6.20;;
2624;SDS011;1322;53.256;10.386;2023-09-07T03:16:15;6.43;;;5.83;;
2624;SDS011;1322;53.256;10.386;2023-09-07T03:18:40;7.57;;;6.60;;
2624;SDS011;1322;53.256;10.386;2023-09-07T03:21:06;7.10;;;6.40;;
2624;SDS011;1322;53.256;10.386;2023-09-07T03:23:32;7.47;;;6.43;;
2624;SDS011;1322;53.256;10.386;2023-09-07T03:25:58;6.00;;;5.40;;
2624;SDS011;1322;53.256;10.386;2023-09-07T03:28:24;6.37;;;5.40;;
2624;SDS011;1322;53.256;10.386;2023-09-07T03:30:51;6.53;;;5.67;;
2624;SDS011;1322;53.256;10.386;2023-09-07T03:33:17;7.97;;;6.23;;
2624;SDS011;1322;53.256;10.386;2023-09-07T03:35:42;5.93;;;5.33;;
2624;SDS011;1322;53.256;10.386;2023-09-07T03:38:08;6.27;;;5.67;;
2624;SDS011;1322;53.256;10.386;2023-09-07T03:40:34;5.83;;;5.33;;
2624;SDS011;1322;53.256;10.386;2023-09-07T03:42:59;9.57;;;7.00;;
2624;SDS011;1322;53.256;10.386;2023-09-07T03:45:25;9.90;;;6.97;;
2624;SDS011;1322;53.256;10.386;2023-09-07T03:47:50;8.03;;;6.70;;
2624;SDS011;1322;53.256;10.386;2023-09-07T03:50:16;8.20;;;7.40;;
2624;SDS011;1322;53.256;10.386;2023-09-07T03:52:42;6.40;;;5.87;;
2624;SDS011;1322;53.256;10.386;2023-09-07T03:55:07;9.37;;;6.63;;
2624;SDS011;1322;53.256;10.386;2023-09-07T03:57:33;6.87;;;6.17;;
2624;SDS011;1322;53.256;10.386;2023-09-07T03:59:59;7.30;;;6.60;;
2624;SDS011;1322;53.256;10.386;2023-09-07T04:02:25;7.70;;;6.13;;
2624;SDS011;1322;53.256;10.386;2023-09-07T04:04:51;7.10;;;6.50;;
2624;SDS011;1322;53.256;10.386;2023-09-07T04:07:17;6.60;;;6.00;;
2624;SDS011;1322;53.256;10.386;2023-09-07T04:09:44;6.30;;;5.70;;
2624;SDS011;1322;53.256;10.386;2023-09-07T04:12:10;6.83;;;6.17;;
2624;SDS011;1322;53.256;10.386;2023-09-07T04:14:36;7.97;;;6.87;;
2624;SDS011;1322;53.256;10.386;2023-09-07T04:17:03;7.83;;;6.90;;
2624;SDS011;1322;53.256;10.386;2023-09-07T04:19:29;7.10;;;6.40;;
2624;SDS011;1322;53.256;10.386;2023-09-07T04:21:54;8.23;;;7.43;;
2624;SDS011;1322;53.256;10.386;2023-09-07T04:24:21;9.40;;;8.50;;
2624;SDS011;1322;53.256;10.386;2023-09-07T04:26:47;7.10;;;6.40;;
2624;SDS011;1322;53.256;10.386;2023-09-07T04:29:13;9.97;;;7.93;;
2624;SDS011;1322;53.256;10.386;2023-09-07T04:31:39;8.03;;;6.90;;
2624;SDS011;1322;53.256;10.386;2023-09-07T04:34:05;10.00;;;7.40;;
2624;SDS011;1322;53.256;10.386;2023-09-07T04:36:30;8.47;;;7.57;;
2624;SDS011;1322;53.256;10.386;2023-09-07T04:38:56;8.10;;;7.30;;
2624;SDS011;1322;53.256;10.386;2023-09-07T04:41:22;9.23;;;7.43;;
2624;SDS011;1322;53.256;10.386;2023-09-07T04:43:48;8.50;;;7.70;;
2624;SDS011;1322;53.256;10.386;2023-09-07T04:46:14;8.00;;;6.90;;
2624;SDS011;1322;53.256;10.386;2023-09-07T04:48:40;8.40;;;6.60;;
2624;SDS011;1322;53.256;10.386;2023-09-07T04:51:07;7.73;;;7.03;;
2624;SDS011;1322;53.256;10.386;2023-09-07T04:53:34;9.10;;;8.03;;
2624;SDS011;1322;53.256;10.386;2023-09-07T04:56:03;7.90;;;7.10;;
2624;SDS011;1322;53.256;10.386;2023-09-07T04:58:29;7.93;;;7.13;;
2624;SDS011;1322;53.256;10.386;2023-09-07T05:01:01;8.10;;;7.33;;
2624;SDS011;1322;53.256;10.386;2023-09-07T05:03:27;14.23;;;7.70;;
2624;SDS011;1322;53.256;10.386;2023-09-07T05:05:53;8.93;;;7.03;;
2624;SDS011;1322;53.256;10.386;2023-09-07T05:08:19;10.27;;;8.00;;
2624;SDS011;1322;53.256;10.386;2023-09-07T05:10:45;8.60;;;7.80;;
2624;SDS011;1322;53.256;10.386;2023-09-07T05:13:11;7.73;;;6.93;;
2624;SDS011;1322;53.256;10.386;2023-09-07T05:15:36;11.10;;;6.60;;
2624;SDS011;1322;53.256;10.386;2023-09-07T05:18:02;10.70;;;7.20;;
2624;SDS011;1322;53.256;10.386;2023-09-07T05:20:30;7.20;;;6.50;;
2624;SDS011;1322;53.256;10.386;2023-09-07T05:22:55;8.57;;;7.20;;
2624;SDS011;1322;53.256;10.386;2023-09-07T05:25:21;8.20;;;6.70;;
2624;SDS011;1322;53.256;10.386;2023-09-07T05:27:47;8.50;;;6.93;;
2624;SDS011;1322;53.256;10.386;2023-09-07T05:30:14;7.67;;;6.97;;
2624;SDS011;1322;53.256;10.386;2023-09-07T05:32:39;9.13;;;7.17;;
2624;SDS011;1322;53.256;10.386;2023-09-07T05:35:06;7.90;;;7.20;;
2624;SDS011;1322;53.256;10.386;2023-09-07T05:37:32;8.67;;;7.10;;
2624;SDS011;1322;53.256;10.386;2023-09-07T05:39:58;7.30;;;6.60;;
2624;SDS011;1322;53.256;10.386;2023-09-07T05:42:23;8.27;;;7.10;;
2624;SDS011;1322;53.256;10.386;2023-09-07T05:44:51;7.00;;;6.30;;
2624;SDS011;1322;53.256;10.386;2023-09-07T05:47:16;8.13;;;7.30;;
2624;SDS011;1322;53.256;10.386;2023-09-07T05:49:42;6.67;;;6.03;;
2624;SDS011;1322;53.256;10.386;2023-09-07T05:52:08;7.53;;;6.83;;
2624;SDS011;1322;53.256;10.386;2023-09-07T05:54:33;7.73;;;6.93;;
2624;SDS011;1322;53.256;10.386;2023-09-07T05:56:59;7.67;;;6.90;;
2624;SDS011;1322;53.256;10.386;2023-09-07T05:59:25;9.57;;;6.20;;
2624;SDS011;1322;53.256;10.386;2023-09-07T06:01:50;7.83;;;6.70;;
2624;SDS011;1322;53.256;10.386;2023-09-07T06:04:16;9.07;;;7.40;;
2624;SDS011;1322;53.256;10.386;2023-09-07T06:06:42;9.83;;;6.53;;
2624;SDS011;1322;53.256;10.386;2023-09-07T06:09:07;7.70;;;6.93;;
2624;SDS011;1322;53.256;10.386;2023-09-07T06:11:33;7.40;;;6.77;;
2624;SDS011;1322;53.256;10.386;2023-09-07T06:13:59;7.50;;;6.80;;
2624;SDS011;1322;53.256;10.386;2023-09-07T06:16:25;8.93;;;7.40;;
2624;SDS011;1322;53.256;10.386;2023-09-07T06:18:50;8.30;;;7.00;;
2624;SDS011;1322;53.256;10.386;2023-09-07T06:21:16;7.10;;;6.50;;
2624;SDS011;1322;53.256;10.386;2023-09-07T06:23:42;9.17;;;6.90;;
2624;SDS011;1322;53.256;10.386;2023-09-07T06:26:08;7.00;;;6.30;;
2624;SDS011;1322;53.256;10.386;2023-09-07T06:28:34;9.13;;;6.63;;
2624;SDS011;1322;53.256;10.386;2023-09-07T06:30:59;7.30;;;6.60;;
2624;SDS011;1322;53.256;10.386;2023-09-07T06:33:25;9.57;;;6.97;;
2624;SDS011;1322;53.256;10.386;2023-09-07T06:35:51;7.00;;;6.20;;
2624;SDS011;1322;53.256;10.386;2023-09-07T06:38:16;6.30;;;5.50;;
2624;SDS011;1322;53.256;10.386;2023-09-07T06:40:47;7.03;;;6.20;;
2624;SDS011;1322;53.256;10.386;2023-09-07T06:43:13;6.73;;;6.03;;
2624;SDS011;1322;53.256;10.386;2023-09-07T06:45:39;9.03;;;6.47;;
2624;SDS011;1322;53.256;10.386;2023-09-07T06:48:05;7.37;;;6.77;;
2624;SDS011;1322;53.256;10.386;2023-09-07T06:50:30;6.20;;;5.70;;
2624;SDS011;1322;53.256;10.386;2023-09-07T06:52:56;7.37;;;6.70;;
2624;SDS011;1322;53.256;10.386;2023-09-07T06:55:22;7.23;;;6.30;;
2624;SDS011;1322;53.256;10.386;2023-09-07T06:57:47;7.10;;;6.40;;
2624;SDS011;1322;53.256;10.386;2023-09-07T07:00:14;9.80;;;7.37;;
2624;SDS011;1322;53.256;10.386;2023-09-07T07:02:40;7.23;;;6.50;;
2624;SDS011;1322;53.256;10.386;2023-09-07T07:05:05;7.60;;;6.50;;
2624;SDS011;1322;53.256;10.386;2023-09-07T07:07:32;8.37;;;6.73;;
2624;SDS011;1322;53.256;10.386;2023-09-07T07:09:57;6.97;;;6.13;;
2624;SDS011;1322;53.256;10.386;2023-09-07T07:12:23;9.13;;;6.87;;
2624;SDS011;1322;53.256;10.386;2023-09-07T07:14:49;8.00;;;7.30;;
2624;SDS011;1322;53.256;10.386;2023-09-07T07:17:14;9.17;;;8.23;;
2624;SDS011;1322;53.256;10.386;2023-09-07T07:19:40;8.47;;;7.03;;
2624;SDS011;1322;53.256;10.386;2023-09-07T07:22:08;6.80;;;6.20;;
2624;SDS011;1322;53.256;10.386;2023-09-07T07:24:34;8.53;;;6.47;;
2624;SDS011;1322;53.256;10.386;2023-09-07T07:26:59;8.30;;;6.83;;
2624;SDS011;1322;53.256;10.386;2023-09-07T07:29:25;9.53;;;6.93;;
2624;SDS011;1322;53.256;10.386;2023-09-07T07:31:50;7.43;;;6.57;;
2624;SDS011;1322;53.256;10.386;2023-09-07T07:34:16;8.07;;;7.23;;
2624;SDS011;1322;53.256;10.386;2023-09-07T07:36:42;9.73;;;6.70;;
2624;SDS011;1322;53.256;10.386;2023-09-07T07:39:07;7.13;;;6.13;;
2624;SDS011;1322;53.256;10.386;2023-09-07T07:41:33;7.37;;;6.53;;
2624;SDS011;1322;53.256;10.386;2023-09-07T07:43:59;9.40;;;7.50;;
2624;SDS011;1322;53.256;10.386;2023-09-07T07:46:24;7.03;;;6.33;;
2624;SDS011;1322;53.256;10.386;2023-09-07T07:48:50;7.17;;;6.47;;
2624;SDS011;1322;53.256;10.386;2023-09-07T07:51:19;9.70;;;7.00;;
2624;SDS011;1322;53.256;10.386;2023-09-07T07:53:47;7.80;;;6.80;;
2624;SDS011;1322;53.256;10.386;2023-09-07T07:56:16;9.00;;;6.90;;
2624;SDS011;1322;53.256;10.386;2023-09-07T07:58:42;9.80;;;7.10;;
2624;SDS011;1322;53.256;10.386;2023-09-07T08:01:13;8.13;;;7.30;;
2624;SDS011;1322;53.256;10.386;2023-09-07T08:03:40;7.60;;;6.37;;
2624;SDS011;1322;53.256;10.386;2023-09-07T08:06:06;6.90;;;6.30;;
2624;SDS011;1322;53.256;10.386;2023-09-07T08:08:32;8.43;;;6.70;;
2624;SDS011;1322;53.256;10.386;2023-09-07T08:10:57;8.37;;;6.40;;
2624;SDS011;1322;53.256;10.386;2023-09-07T08:13:25;14.60;;;6.13;;
2624;SDS011;1322;53.256;10.386;2023-09-07T08:15:50;10.33;;;6.70;;
2624;SDS011;1322;53.256;10.386;2023-09-07T08:18:16;6.93;;;6.33;;
2624;SDS011;1322;53.256;10.386;2023-09-07T08:20:41;8.60;;;6.47;;
2624;SDS011;1322;53.256;10.386;2023-09-07T08:23:07;9.90;;;7.53;;
2624;SDS011;1322;53.256;10.386;2023-09-07T08:25:35;7.60;;;6.90;;
2624;SDS011;1322;53.256;10.386;2023-09-07T08:28:01;10.00;;;7.00;;
2624;SDS011;1322;53.256;10.386;2023-09-07T08:30:30;6.90;;;6.30;;
2624;SDS011;1322;53.256;10.386;2023-09-07T08:32:56;9.33;;;6.67;;
2624;SDS011;1322;53.256;10.386;2023-09-07T08:35:22;9.47;;;6.77;;
2624;SDS011;1322;53.256;10.386;2023-09-07T08:37:52;7.27;;;6.60;;
2624;SDS011;1322;53.256;10.386;2023-09-07T08:40:19;6.87;;;6.17;;
2624;SDS011;1322;53.256;10.386;2023-09-07T08:42:45;9.83;;;7.20;;
2624;SDS011;1322;53.256;10.386;2023-09-07T08:45:11;9.83;;;6.80;;
2624;SDS011;1322;53.256;10.386;2023-09-07T08:47:40;6.73;;;6.13;;
2624;SDS011;1322;53.256;10.386;2023-09-07T08:50:07;7.50;;;6.80;;
2624;SDS011;1322;53.256;10.386;2023-09-07T08:52:36;7.73;;;7.03;;
2624;SDS011;1322;53.256;10.386;2023-09-07T08:55:02;8.33;;;7.43;;
2624;SDS011;1322;53.256;10.386;2023-09-07T08:57:29;10.50;;;8.37;;
2624;SDS011;1322;53.256;10.386;2023-09-07T08:59:56;7.37;;;6.77;;
2624;SDS011;1322;53.256;10.386;2023-09-07T09:02:22;7.30;;;6.60;;
2624;SDS011;1322;53.256;10.386;2023-09-07T09:04:48;7.50;;;6.70;;
2624;SDS011;1322;53.256;10.386;2023-09-07T09:07:15;7.57;;;6.80;;
2624;SDS011;1322;53.256;10.386;2023-09-07T09:09:41;7.77;;;6.87;;
2624;SDS011;1322;53.256;10.386;2023-09-07T09:12:10;7.00;;;6.30;;
2624;SDS011;1322;53.256;10.386;2023-09-07T09:14:37;7.27;;;6.63;;
2624;SDS011;1322;53.256;10.386;2023-09-07T09:17:10;10.90;;;6.33;;
2624;SDS011;1322;53.256;10.386;2023-09-07T09:19:38;8.77;;;6.57;;
2624;SDS011;1322;53.256;10.386;2023-09-07T09:22:03;6.73;;;6.10;;
2624;SDS011;1322;53.256;10.386;2023-09-07T09:24:32;7.47;;;6.30;;
2624;SDS011;1322;53.256;10.386;2023-09-07T09:27:01;7.90;;;6.63;;
2624;SDS011;1322;53.256;10.386;2023-09-07T09:29:29;10.70;;;6.23;;
2624;SDS011;1322;53.256;10.386;2023-09-07T09:31:59;9.33;;;6.30;;
2624;SDS011;1322;53.256;10.386;2023-09-07T09:34:30;13.40;;;6.43;;
2624;SDS011;1322;53.256;10.386;2023-09-07T09:36:59;9.00;;;7.57;;
2624;SDS011;1322;53.256;10.386;2023-09-07T09:39:26;6.27;;;5.60;;
2624;SDS011;1322;53.256;10.386;2023-09-07T09:41:52;8.13;;;5.83;;
2624;SDS011;1322;53.256;10.386;2023-09-07T09:44:18;7.67;;;6.90;;
2624;SDS011;1322;53.256;10.386;2023-09-07T09:46:45;7.63;;;6.43;;
2624;SDS011;1322;53.256;10.386;2023-09-07T09:49:12;9.40;;;6.20;;
2624;SDS011;1322;53.256;10.386;2023-09-07T09:51:40;7.40;;;6.60;;
2624;SDS011;1322;53.256;10.386;2023-09-07T09:54:07;6.87;;;5.83;;
2624;SDS011;1322;53.256;10.386;2023-09-07T09:56:35;6.70;;;6.10;;
2624;SDS011;1322;53.256;10.386;2023-09-07T09:59:00;9.50;;;6.03;;
2624;SDS011;1322;53.256;10.386;2023-09-07T10:01:26;8.30;;;6.60;;
2624;SDS011;1322;53.256;10.386;2023-09-07T10:03:54;6.60;;;5.77;;
2624;SDS011;1322;53.256;10.386;2023-09-07T10:06:25;8.63;;;6.20;;
2624;SDS011;1322;53.256;10.386;2023-09-07T10:08:59;9.87;;;6.00;;
2624;SDS011;1322;53.256;10.386;2023-09-07T10:11:34;6.77;;;4.80;;
2624;SDS011;1322;53.256;10.386;2023-09-07T10:14:04;6.57;;;5.87;;
2624;SDS011;1322;53.256;10.386;2023-09-07T10:16:44;6.57;;;5.47;;
2624;SDS011;1322;53.256;10.386;2023-09-07T10:19:14;6.70;;;6.10;;
2624;SDS011;1322;53.256;10.386;2023-09-07T10:21:44;6.40;;;5.63;;
2624;SDS011;1322;53.256;10.386;2023-09-07T10:24:10;5.93;;;5.33;;
2624;SDS011;1322;53.256;10.386;2023-09-07T10:26:36;7.87;;;5.80;;
2624;SDS011;1322;53.256;10.386;2023-09-07T10:29:02;9.87;;;6.40;;
2624;SDS011;1322;53.256;10.386;2023-09-07T10:31:30;7.33;;;5.03;;
2624;SDS011;1322;53.256;10.386;2023-09-07T10:33:56;6.13;;;5.33;;
2624;SDS011;1322;53.256;10.386;2023-09-07T10:36:33;7.60;;;5.57;;
2624;SDS011;1322;53.256;10.386;2023-09-07T10:38:59;6.30;;;5.70;;
2624;SDS011;1322;53.256;10.386;2023-09-07T10:41:25;8.60;;;5.53;;
2624;SDS011;1322;53.256;10.386;2023-09-07T10:43:52;6.10;;;5.50;;
2624;SDS011;1322;53.256;10.386;2023-09-07T10:46:22;7.40;;;5.20;;
2624;SDS011;1322;53.256;10.386;2023-09-07T10:48:49;17.27;;;6.03;;
2624;SDS011;1322;53.256;10.386;2023-09-07T10:51:16;6.73;;;5.30;;
2624;SDS011;1322;53.256;10.386;2023-09-07T10:53:43;8.00;;;5.67;;
2624;SDS011;1322;53.256;10.386;2023-09-07T10:56:08;5.80;;;5.23;;
2624;SDS011;1322;53.256;10.386;2023-09-07T10:58:35;8.30;;;5.60;;
2624;SDS011;1322;53.256;10.386;2023-09-07T11:01:03;7.27;;;5.70;;
2624;SDS011;1322;53.256;10.386;2023-09-07T11:03:30;5.63;;;5.07;;
2624;SDS011;1322;53.256;10.386;2023-09-07T11:06:39;9.20;;;5.40;;
2624;SDS011;1322;53.256;10.386;2023-09-07T11:08:46;8.60;;;5.23;;
2624;SDS011;1322;53.256;10.386;2023-09-07T11:11:12;6.70;;;5.00;;
2624;SDS011;1322;53.256;10.386;2023-09-07T11:13:38;6.47;;;5.70;;
2624;SDS011;1322;53.256;10.386;2023-09-07T11:16:07;7.83;;;5.87;;
2624;SDS011;1322;53.256;10.386;2023-09-07T11:18:34;7.17;;;5.53;;
2624;SDS011;1322;53.256;10.386;2023-09-07T11:21:02;6.47;;;5.57;;
2624;SDS011;1322;53.256;10.386;2023-09-07T11:23:32;6.63;;;5.27;;
2624;SDS011;1322;53.256;10.386;2023-09-07T11:26:04;9.00;;;5.47;;
2624;SDS011;1322;53.256;10.386;2023-09-07T11:28:31;7.63;;;5.87;;
2624;SDS011;1322;53.256;10.386;2023-09-07T11:30:57;12.13;;;5.97;;
2624;SDS011;1322;53.256;10.386;2023-09-07T11:33:24;6.40;;;5.50;;
2624;SDS011;1322;53.256;10.386;2023-09-07T11:35:50;7.10;;;5.50;;
2624;SDS011;1322;53.256;10.386;2023-09-07T11:38:17;10.73;;;5.37;;
2624;SDS011;1322;53.256;10.386;2023-09-07T11:40:43;5.63;;;4.97;;
2624;SDS011;1322;53.256;10.386;2023-09-07T11:43:16;5.97;;;5.37;;
2624;SDS011;1322;53.256;10.386;2023-09-07T11:45:45;6.50;;;5.10;;
2624;SDS011;1322;53.256;10.386;2023-09-07T11:48:11;7.30;;;5.60;;
2624;SDS011;1322;53.256;10.386;2023-09-07T11:50:38;8.00;;;5.70;;
2624;SDS011;1322;53.256;10.386;2023-09-07T11:53:05;6.70;;;5.53;;
2624;SDS011;1322;53.256;10.386;2023-09-07T11:55:31;7.63;;;5.70;;
2624;SDS011;1322;53.256;10.386;2023-09-07T11:57:57;10.97;;;9.83;;
2624;SDS011;1322;53.256;10.386;2023-09-07T12:00:23;6.07;;;5.47;;
2624;SDS011;1322;53.256;10.386;2023-09-07T12:02:48;6.27;;;5.67;;
2624;SDS011;1322;53.256;10.386;2023-09-07T12:05:14;7.13;;;5.47;;
2624;SDS011;1322;53.256;10.386;2023-09-07T12:07:41;5.83;;;5.27;;
2624;SDS011;1322;53.256;10.386;2023-09-07T12:10:10;5.70;;;5.10;;
2624;SDS011;1322;53.256;10.386;2023-09-07T12:12:37;8.77;;;5.30;;
2624;SDS011;1322;53.256;10.386;2023-09-07T12:15:03;10.20;;;6.13;;
2624;SDS011;1322;53.256;10.386;2023-09-07T12:17:30;6.17;;;5.57;;
2624;SDS011;1322;53.256;10.386;2023-09-07T12:19:56;5.13;;;4.53;;
2624;SDS011;1322;53.256;10.386;2023-09-07T12:22:22;8.00;;;5.77;;
2624;SDS011;1322;53.256;10.386;2023-09-07T12:24:47;15.33;;;5.80;;
2624;SDS011;1322;53.256;10.386;2023-09-07T12:27:14;7.00;;;5.70;;
2624;SDS011;1322;53.256;10.386;2023-09-07T12:29:39;5.67;;;5.07;;
2624;SDS011;1322;53.256;10.386;2023-09-07T12:32:08;6.60;;;5.10;;
2624;SDS011;1322;53.256;10.386;2023-09-07T12:34:34;6.03;;;4.87;;
2624;SDS011;1322;53.256;10.386;2023-09-07T12:36:59;7.10;;;4.90;;
2624;SDS011;1322;53.256;10.386;2023-09-07T12:39:26;10.13;;;4.93;;
2624;SDS011;1322;53.256;10.386;2023-09-07T12:41:51;10.00;;;5.63;;
2624;SDS011;1322;53.256;10.386;2023-09-07T12:44:17;6.03;;;4.87;;
2624;SDS011;1322;53.256;10.386;2023-09-07T12:46:46;5.50;;;5.00;;
2624;SDS011;1322;53.256;10.386;2023-09-07T12:49:11;6.40;;;5.47;;
2624;SDS011;1322;53.256;10.386;2023-09-07T12:51:40;6.33;;;5.10;;
2624;SDS011;1322;53.256;10.386;2023-09-07T12:54:06;6.57;;;4.70;;
2624;SDS011;1322;53.256;10.386;2023-09-07T12:56:32;6.30;;;5.00;;
2624;SDS011;1322;53.256;10.386;2023-09-07T12:58:58;5.50;;;4.83;;
2624;SDS011;1322;53.256;10.386;2023-09-07T13:01:25;5.07;;;4.43;;
2624;SDS011;1322;53.256;10.386;2023-09-07T13:03:51;6.70;;;4.53;;
2624;SDS011;1322;53.256;10.386;2023-09-07T13:06:16;12.27;;;4.40;;
2624;SDS011;1322;53.256;10.386;2023-09-07T13:08:43;6.33;;;5.30;;
2624;SDS011;1322;53.256;10.386;2023-09-07T13:11:09;8.73;;;5.10;;
2624;SDS011;1322;53.256;10.386;2023-09-07T13:13:35;8.67;;;4.20;;
2624;SDS011;1322;53.256;10.386;2023-09-07T13:16:01;6.90;;;4.90;;
2624;SDS011;1322;53.256;10.386;2023-09-07T13:18:26;4.57;;;4.17;;
2624;SDS011;1322;53.256;10.386;2023-09-07T13:20:52;4.83;;;4.43;;
2624;SDS011;1322;53.256;10.386;2023-09-07T13:23:24;5.43;;;4.43;;
2624;SDS011;1322;53.256;10.386;2023-09-07T13:25:54;5.53;;;4.80;;
2624;SDS011;1322;53.256;10.386;2023-09-07T13:28:21;6.10;;;4.83;;
2624;SDS011;1322;53.256;10.386;2023-09-07T13:30:47;7.20;;;4.43;;
2624;SDS011;1322;53.256;10.386;2023-09-07T13:33:12;5.30;;;4.57;;
2624;SDS011;1322;53.256;10.386;2023-09-07T13:35:38;4.83;;;4.37;;
2624;SDS011;1322;53.256;10.386;2023-09-07T13:38:04;5.10;;;4.60;;
2624;SDS011;1322;53.256;10.386;2023-09-07T13:40:30;5.43;;;4.73;;
2624;SDS011;1322;53.256;10.386;2023-09-07T13:42:56;4.80;;;4.30;;
2624;SDS011;1322;53.256;10.386;2023-09-07T13:45:22;10.40;;;4.70;;
2624;SDS011;1322;53.256;10.386;2023-09-07T13:47:48;6.97;;;5.00;;
2624;SDS011;1322;53.256;10.386;2023-09-07T13:50:14;10.07;;;5.00;;
2624;SDS011;1322;53.256;10.386;2023-09-07T13:52:39;6.80;;;4.90;;
2624;SDS011;1322;53.256;10.386;2023-09-07T13:55:05;7.93;;;4.40;;
2624;SDS011;1322;53.256;10.386;2023-09-07T13:57:34;6.50;;;4.33;;
2624;SDS011;1322;53.256;10.386;2023-09-07T14:00:00;4.73;;;4.23;;
2624;SDS011;1322;53.256;10.386;2023-09-07T14:02:26;5.63;;;4.70;;
2624;SDS011;1322;53.256;10.386;2023-09-07T14:04:52;5.60;;;4.60;;
2624;SDS011;1322;53.256;10.386;2023-09-07T14:07:18;9.23;;;4.63;;
2624;SDS011;1322;53.256;10.386;2023-09-07T14:09:44;5.03;;;4.53;;
2624;SDS011;1322;53.256;10.386;2023-09-07T14:12:10;5.43;;;4.93;;
2624;SDS011;1322;53.256;10.386;2023-09-07T14:14:35;5.30;;;4.50;;
2624;SDS011;1322;53.256;10.386;2023-09-07T14:17:01;5.57;;;4.43;;
2624;SDS011;1322;53.256;10.386;2023-09-07T14:19:27;6.90;;;5.13;;
2624;SDS011;1322;53.256;10.386;2023-09-07T14:21:56;8.13;;;5.30;;
2624;SDS011;1322;53.256;10.386;2023-09-07T14:24:22;5.97;;;4.47;;
2624;SDS011;1322;53.256;10.386;2023-09-07T14:26:48;6.27;;;5.07;;
2624;SDS011;1322;53.256;10.386;2023-09-07T14:29:14;5.97;;;5.35;;
2624;SDS011;1322;53.256;10.386;2023-09-07T14:31:39;5.20;;;4.70;;
2624;SDS011;1322;53.256;10.386;2023-09-07T14:34:07;5.97;;;5.03;;
2624;SDS011;1322;53.256;10.386;2023-09-07T14:36:33;6.83;;;5.03;;
2624;SDS011;1322;53.256;10.386;2023-09-07T14:38:58;5.15;;;4.65;;
2624;SDS011;1322;53.256;10.386;2023-09-07T14:41:24;5.03;;;4.03;;
2624;SDS011;1322;53.256;10.386;2023-09-07T14:43:50;7.00;;;4.80;;
2624;SDS011;1322;53.256;10.386;2023-09-07T14:46:16;5.03;;;4.20;;
2624;SDS011;1322;53.256;10.386;2023-09-07T14:48:43;5.87;;;4.50;;
2624;SDS011;1322;53.256;10.386;2023-09-07T14:51:09;6.70;;;4.93;;
2624;SDS011;1322;53.256;10.386;2023-09-07T14:53:35;6.10;;;5.10;;
2624;SDS011;1322;53.256;10.386;2023-09-07T14:56:01;5.13;;;4.37;;